createdAt,value
2019-05-21T00:00:38.849Z,14.70
2019-05-21T00:03:10.584Z,15.97
2019-05-21T00:05:42.267Z,15.83
2019-05-21T00:08:14.009Z,18.47
2019-05-21T00:10:45.784Z,18.13
2019-05-21T00:13:17.633Z,19.40
2019-05-21T00:15:50.734Z,18.57
2019-05-21T00:18:22.426Z,17.93
2019-05-21T00:20:54.159Z,17.03
2019-05-21T00:23:25.862Z,18.77
2019-05-21T00:25:58.794Z,17.10
2019-05-21T00:28:40.014Z,17.90
2019-05-21T00:32:06.034Z,16.60
2019-05-21T00:35:45.308Z,14.47
2019-05-21T00:39:10.811Z,15.63
2019-05-21T00:42:05.330Z,17.73
2019-05-21T00:44:41.036Z,18.87
2019-05-21T00:47:14.054Z,19.67
2019-05-21T00:49:45.943Z,19.60
2019-05-21T00:52:17.696Z,18.63
2019-05-21T00:54:49.413Z,17.90
2019-05-21T00:57:21.162Z,17.73
2019-05-21T00:59:52.845Z,18.17
2019-05-21T01:02:24.551Z,17.77
2019-05-21T01:05:00.591Z,17.03
2019-05-21T01:07:29.616Z,16.40
2019-05-21T01:10:01.329Z,16.47
2019-05-21T01:12:32.996Z,16.63
2019-05-21T01:15:04.844Z,18.13
2019-05-21T01:17:36.506Z,17.33
2019-05-21T01:20:08.445Z,16.13
2019-05-21T01:22:41.261Z,15.40
2019-05-21T01:25:13.037Z,15.60
2019-05-21T01:27:44.736Z,16.00
2019-05-21T01:30:17.627Z,15.87
2019-05-21T01:32:49.306Z,18.30
2019-05-21T01:35:20.958Z,17.73
2019-05-21T01:37:52.642Z,15.43
2019-05-21T01:40:24.337Z,16.47
2019-05-21T01:42:56.022Z,16.40
2019-05-21T01:45:27.718Z,16.07
2019-05-21T01:47:59.424Z,16.07
2019-05-21T01:50:31.228Z,14.83
2019-05-21T01:53:03.206Z,15.73
2019-05-21T01:55:34.885Z,14.90
2019-05-21T01:58:06.672Z,16.90
2019-05-21T02:00:38.434Z,17.10
2019-05-21T02:03:10.102Z,16.60
2019-05-21T02:05:41.822Z,16.17
2019-05-21T02:08:13.543Z,15.93
2019-05-21T02:10:46.593Z,17.00
2019-05-21T02:13:18.274Z,16.67
2019-05-21T02:15:49.975Z,16.80
2019-05-21T02:18:21.669Z,17.73
2019-05-21T02:20:54.483Z,17.23
2019-05-21T02:23:26.278Z,18.67
2019-05-21T02:26:00.661Z,17.90
2019-05-21T02:28:32.443Z,18.93
2019-05-21T02:31:04.535Z,19.77
2019-05-21T02:33:36.187Z,19.23
2019-05-21T02:36:09.347Z,20.73
2019-05-21T02:38:41.006Z,20.83
2019-05-21T02:41:14.184Z,21.27
2019-05-21T02:43:45.959Z,20.67
2019-05-21T02:46:17.648Z,21.47
2019-05-21T02:48:49.332Z,21.97
2019-05-21T02:51:21.018Z,21.90
2019-05-21T02:53:52.670Z,23.33
2019-05-21T02:56:24.344Z,24.10
2019-05-21T02:58:56.033Z,24.97
2019-05-21T03:01:46.697Z,25.20
2019-05-21T03:04:18.591Z,23.63
2019-05-21T03:06:50.260Z,25.17
2019-05-21T03:09:22.005Z,26.97
2019-05-21T03:11:53.663Z,28.57
2019-05-21T03:14:25.390Z,28.87
2019-05-21T03:16:57.023Z,30.10
2019-05-21T03:19:28.788Z,28.53
2019-05-21T03:22:00.469Z,27.57
2019-05-21T03:24:32.247Z,24.20
2019-05-21T03:27:03.920Z,24.60
2019-05-21T03:29:35.580Z,23.53
2019-05-21T03:32:07.275Z,23.33
2019-05-21T03:34:38.931Z,22.37
2019-05-21T03:37:10.604Z,23.87
2019-05-21T03:39:42.288Z,23.00
2019-05-21T03:42:13.972Z,22.97
2019-05-21T03:44:59.224Z,22.93
2019-05-21T03:47:19.715Z,23.73
2019-05-21T03:49:53.839Z,22.23
2019-05-21T03:52:25.535Z,23.13
2019-05-21T03:54:57.185Z,23.37
2019-05-21T03:57:28.896Z,24.53
2019-05-21T04:00:01.704Z,26.07
2019-05-21T04:02:33.525Z,27.07
2019-05-21T04:05:06.174Z,30.33
2019-05-21T04:07:37.969Z,30.67
2019-05-21T04:10:17.813Z,30.90
2019-05-21T04:13:08.879Z,30.87
2019-05-21T04:15:50.140Z,28.57
2019-05-21T04:18:26.385Z,28.20
2019-05-21T04:20:58.078Z,29.30
2019-05-21T04:23:29.844Z,30.13
2019-05-21T04:26:02.895Z,31.17
2019-05-21T04:28:34.586Z,29.37
2019-05-21T04:31:06.325Z,31.57
2019-05-21T04:33:38.072Z,29.23
2019-05-21T04:36:09.764Z,30.07
2019-05-21T04:38:41.535Z,29.23
2019-05-21T04:41:13.327Z,28.97
2019-05-21T04:43:44.995Z,31.40
2019-05-21T04:46:16.680Z,31.20
2019-05-21T04:48:48.376Z,32.50
2019-05-21T04:51:20.076Z,30.53
2019-05-21T04:53:51.838Z,29.47
2019-05-21T04:56:24.730Z,30.63
2019-05-21T04:58:56.389Z,29.10
2019-05-21T05:01:28.071Z,28.30
2019-05-21T05:03:59.813Z,28.43
2019-05-21T05:06:32.954Z,30.87
2019-05-21T05:09:06.100Z,26.97
2019-05-21T05:11:37.818Z,26.47
2019-05-21T05:14:10.994Z,28.43
2019-05-21T05:16:42.784Z,26.67
2019-05-21T05:19:14.520Z,25.87
2019-05-21T05:21:46.205Z,26.93
2019-05-21T05:24:17.900Z,27.13
2019-05-21T05:26:49.545Z,23.30
2019-05-21T05:29:22.789Z,20.57
2019-05-21T05:31:54.449Z,21.43
2019-05-21T05:34:27.451Z,19.30
2019-05-21T05:36:59.121Z,17.43
2019-05-21T05:39:30.794Z,16.27
2019-05-21T05:42:02.484Z,16.70
2019-05-21T05:44:34.202Z,15.67
2019-05-21T05:47:05.875Z,13.83
2019-05-21T05:49:42.244Z,11.73
2019-05-21T05:52:13.919Z,12.57
2019-05-21T05:54:46.778Z,11.67
2019-05-21T05:57:18.503Z,12.23
2019-05-21T05:59:50.364Z,12.17
2019-05-21T06:02:22.207Z,13.07
2019-05-21T06:04:53.913Z,13.57
2019-05-21T06:07:25.588Z,18.40
2019-05-21T06:09:57.328Z,19.27
2019-05-21T06:12:29.039Z,19.03
2019-05-21T06:15:00.733Z,17.37
2019-05-21T06:17:34.002Z,19.40
2019-05-21T06:20:12.486Z,19.60
2019-05-21T06:22:44.209Z,22.33
2019-05-21T06:25:18.454Z,22.93
2019-05-21T06:27:50.151Z,21.00
2019-05-21T06:30:22.172Z,21.40
2019-05-21T06:32:53.896Z,20.60
2019-05-21T06:35:25.618Z,19.60
2019-05-21T06:37:57.336Z,18.40
2019-05-21T06:40:29.125Z,20.37
2019-05-21T06:43:00.947Z,19.07
2019-05-21T06:45:32.660Z,20.03
2019-05-21T06:48:04.371Z,22.27
2019-05-21T06:50:37.556Z,21.53
2019-05-21T06:53:10.702Z,21.57
2019-05-21T06:55:42.421Z,22.50
2019-05-21T06:58:14.173Z,24.07
2019-05-21T07:00:47.016Z,25.47
2019-05-21T07:03:18.810Z,23.10
2019-05-21T07:05:58.660Z,23.23
2019-05-21T07:08:34.235Z,24.37
2019-05-21T07:10:58.882Z,25.10
2019-05-21T07:13:31.235Z,25.57
2019-05-21T07:16:04.291Z,24.53
2019-05-21T07:18:35.970Z,24.77
2019-05-21T07:21:07.736Z,25.27
2019-05-21T07:23:39.416Z,24.73
2019-05-21T07:26:11.122Z,25.53
2019-05-21T07:28:42.885Z,25.53
2019-05-21T07:31:17.385Z,24.27
2019-05-21T07:33:48.101Z,25.00
2019-05-21T07:36:20.021Z,26.00
2019-05-21T07:38:53.905Z,27.03
2019-05-21T07:41:25.112Z,26.10
2019-05-21T07:43:56.857Z,27.57
2019-05-21T07:46:29.808Z,25.43
2019-05-21T07:49:01.529Z,26.73
2019-05-21T07:51:35.317Z,25.40
2019-05-21T07:54:12.018Z,23.50
2019-05-21T07:56:45.267Z,23.83
2019-05-21T07:59:17.465Z,25.17
2019-05-21T08:01:49.183Z,24.70
2019-05-21T08:04:20.964Z,25.07
2019-05-21T08:06:52.756Z,23.00
2019-05-21T08:09:24.510Z,24.80
2019-05-21T08:11:56.179Z,23.23
2019-05-21T08:14:28.077Z,24.57
2019-05-21T08:16:59.775Z,22.33
2019-05-21T08:19:31.548Z,23.77
2019-05-21T08:22:03.504Z,23.83
2019-05-21T08:24:35.353Z,24.57
2019-05-21T08:27:07.117Z,24.37
2019-05-21T08:29:38.916Z,24.53
2019-05-21T08:32:10.746Z,24.87
2019-05-21T08:34:42.435Z,26.70
2019-05-21T08:37:14.138Z,25.77
2019-05-21T08:39:45.864Z,24.57
2019-05-21T08:42:19.457Z,23.83
2019-05-21T08:44:51.425Z,23.03
2019-05-21T08:47:23.303Z,22.27
2019-05-21T08:49:55.089Z,20.27
2019-05-21T08:52:27.024Z,18.37
2019-05-21T08:54:59.039Z,17.60
2019-05-21T08:57:31.010Z,17.03
2019-05-21T09:00:03.054Z,16.57
2019-05-21T09:02:35.057Z,20.07
2019-05-21T09:05:08.416Z,19.83
2019-05-21T09:07:40.709Z,19.40
2019-05-21T09:10:13.860Z,19.07
2019-05-21T09:12:45.742Z,19.03
2019-05-21T09:15:19.485Z,17.97
2019-05-21T09:17:51.462Z,18.67
2019-05-21T09:20:25.227Z,27.80
2019-05-21T09:22:57.315Z,18.37
2019-05-21T09:25:29.352Z,16.90
2019-05-21T09:28:03.103Z,28.35
2019-05-21T09:30:35.223Z,18.80
2019-05-21T09:33:07.236Z,18.20
2019-05-21T09:35:39.511Z,32.65
2019-05-21T09:38:11.575Z,19.33
2019-05-21T09:40:43.541Z,19.93
2019-05-21T09:43:16.905Z,32.83
2019-05-21T09:45:49.000Z,23.87
2019-05-21T09:48:20.826Z,21.50
2019-05-21T09:50:53.883Z,22.97
2019-05-21T09:53:25.925Z,22.53
2019-05-21T09:55:59.889Z,20.80
2019-05-21T09:58:40.815Z,21.93
2019-05-21T10:01:21.067Z,22.07
2019-05-21T10:03:59.811Z,22.97
2019-05-21T10:06:31.812Z,23.43
2019-05-21T10:09:07.364Z,22.77
2019-05-21T10:11:39.483Z,25.33
2019-05-21T10:14:11.539Z,22.57
2019-05-21T10:16:43.636Z,20.90
2019-05-21T10:19:15.523Z,21.40
2019-05-21T10:21:47.463Z,22.73
2019-05-21T10:24:19.516Z,23.70
2019-05-21T10:26:51.720Z,24.13
2019-05-21T10:29:25.486Z,22.67
2019-05-21T10:31:57.318Z,21.77
2019-05-21T10:34:29.027Z,20.33
2019-05-21T10:37:00.996Z,20.97
2019-05-21T10:39:32.698Z,21.93
2019-05-21T10:42:04.510Z,21.27
2019-05-21T10:44:36.563Z,23.17
2019-05-21T10:47:09.572Z,22.67
2019-05-21T10:49:41.337Z,22.40
2019-05-21T10:52:13.160Z,23.47
2019-05-21T10:54:44.983Z,24.33
2019-05-21T10:57:16.857Z,25.87
2019-05-21T10:59:48.623Z,24.33
2019-05-21T11:02:27.075Z,24.50
2019-05-21T11:05:05.698Z,23.13
2019-05-21T11:07:37.415Z,23.30
2019-05-21T11:10:09.831Z,23.93
2019-05-21T11:12:41.501Z,23.97
2019-05-21T11:15:14.274Z,23.30
2019-05-21T11:18:07.065Z,23.97
2019-05-21T11:20:20.148Z,26.20
2019-05-21T11:22:51.883Z,25.50
2019-05-21T11:25:23.558Z,24.03
2019-05-21T11:27:55.292Z,23.00
2019-05-21T11:30:27.012Z,22.33
2019-05-21T11:32:58.804Z,20.87
2019-05-21T11:35:30.543Z,19.47
2019-05-21T11:38:02.311Z,20.60
2019-05-21T11:40:34.094Z,20.60
2019-05-21T11:43:06.178Z,25.87
2019-05-21T11:45:38.061Z,27.33
2019-05-21T11:48:09.786Z,26.70
2019-05-21T11:50:46.452Z,24.13
2019-05-21T11:53:20.763Z,22.03
2019-05-21T11:55:55.544Z,22.03
2019-05-21T11:58:31.756Z,23.43
2019-05-21T12:01:06.181Z,25.13
2019-05-21T12:03:37.948Z,23.13
2019-05-21T12:06:15.098Z,36.13
2019-05-21T12:08:56.971Z,22.33
2019-05-21T12:11:28.236Z,19.53
2019-05-21T12:14:02.651Z,18.13
2019-05-21T12:16:34.292Z,18.47
2019-05-21T12:19:08.348Z,21.47
2019-05-21T12:21:39.604Z,21.30
2019-05-21T12:24:11.487Z,21.87
2019-05-21T12:26:43.248Z,23.77
2019-05-21T12:29:15.164Z,24.73
2019-05-21T12:31:46.960Z,23.30
2019-05-21T12:34:18.777Z,23.03
2019-05-21T12:36:50.662Z,23.83
2019-05-21T12:39:22.439Z,21.57
2019-05-21T12:41:56.045Z,19.63
2019-05-21T12:44:27.904Z,19.07
2019-05-21T12:46:59.812Z,15.70
2019-05-21T12:49:31.575Z,17.20
2019-05-21T12:52:03.392Z,17.63
2019-05-21T12:54:35.192Z,18.77
2019-05-21T12:57:06.920Z,25.93
2019-05-21T12:59:38.755Z,25.47
2019-05-21T13:02:10.478Z,23.33
2019-05-21T13:04:42.295Z,22.07
2019-05-21T13:07:14.188Z,21.67
2019-05-21T13:09:46.189Z,17.30
2019-05-21T13:12:18.089Z,18.97
2019-05-21T13:14:50.907Z,17.97
2019-05-21T13:17:22.760Z,18.10
2019-05-21T13:19:54.629Z,17.70
2019-05-21T13:22:46.950Z,18.07
2019-05-21T13:25:18.922Z,16.87
2019-05-21T13:27:50.757Z,17.23
2019-05-21T13:30:24.792Z,16.50
2019-05-21T13:32:56.744Z,17.67
2019-05-21T13:35:29.722Z,16.87
2019-05-21T13:38:01.413Z,18.00
2019-05-21T13:40:34.136Z,17.37
2019-05-21T13:43:05.991Z,17.50
2019-05-21T13:45:37.856Z,16.57
2019-05-21T13:48:09.593Z,16.90
2019-05-21T13:50:41.441Z,15.60
2019-05-21T13:53:13.256Z,16.10
2019-05-21T13:55:45.384Z,16.07
2019-05-21T13:58:17.297Z,15.60
2019-05-21T14:00:52.945Z,14.77
2019-05-21T14:03:24.656Z,15.37
2019-05-21T14:05:58.805Z,14.13
2019-05-21T14:08:30.710Z,13.33
2019-05-21T14:11:02.863Z,12.97
2019-05-21T14:13:34.924Z,13.97
2019-05-21T14:16:06.999Z,14.60
2019-05-21T14:18:39.124Z,14.13
2019-05-21T14:21:11.252Z,14.43
2019-05-21T14:23:43.163Z,13.73
2019-05-21T14:26:33.970Z,13.70
2019-05-21T14:29:07.203Z,12.57
2019-05-21T14:31:39.041Z,13.63
2019-05-21T14:34:10.879Z,12.93
2019-05-21T14:36:42.732Z,14.00
2019-05-21T14:39:17.002Z,13.93
2019-05-21T14:41:48.889Z,14.57
2019-05-21T14:44:20.722Z,14.17
2019-05-21T14:46:52.522Z,13.90
2019-05-21T14:49:24.411Z,16.13
2019-05-21T14:51:57.589Z,16.10
2019-05-21T14:54:29.385Z,15.40
2019-05-21T14:57:02.781Z,14.73
2019-05-21T14:59:34.647Z,12.97
2019-05-21T15:02:07.662Z,13.60
2019-05-21T15:04:39.742Z,12.90
2019-05-21T15:07:11.827Z,12.30
2019-05-21T15:09:43.606Z,12.63
2019-05-21T15:12:15.429Z,12.30
2019-05-21T15:14:47.208Z,11.70
2019-05-21T15:17:20.602Z,11.23
2019-05-21T15:19:54.698Z,11.90
2019-05-21T15:22:26.487Z,11.83
2019-05-21T15:24:58.514Z,11.93
2019-05-21T15:27:30.278Z,11.00
2019-05-21T15:30:03.544Z,26.80
2019-05-21T15:32:35.249Z,14.47
2019-05-21T15:35:08.587Z,12.77
2019-05-21T15:37:40.325Z,11.83
2019-05-21T15:40:12.564Z,12.13
2019-05-21T15:42:44.389Z,11.87
2019-05-21T15:45:16.364Z,13.43
2019-05-21T15:47:48.282Z,13.07
2019-05-21T15:50:20.168Z,13.17
2019-05-21T15:52:52.134Z,11.90
2019-05-21T15:55:23.881Z,12.50
2019-05-21T15:57:55.728Z,11.30
2019-05-21T16:00:27.865Z,12.23
2019-05-21T16:03:00.865Z,12.90
2019-05-21T16:05:32.777Z,14.37
2019-05-21T16:08:05.968Z,13.73
2019-05-21T16:10:37.700Z,13.97
2019-05-21T16:13:09.424Z,14.03
2019-05-21T16:15:41.239Z,12.07
2019-05-21T16:18:12.976Z,12.30
2019-05-21T16:20:44.899Z,12.83
2019-05-21T16:23:18.508Z,12.70
2019-05-21T16:25:50.280Z,12.00
2019-05-21T16:28:22.116Z,11.67
2019-05-21T16:30:53.841Z,11.13
2019-05-21T16:33:25.654Z,11.50
2019-05-21T16:35:57.567Z,11.60
2019-05-21T16:38:29.761Z,11.90
2019-05-21T16:41:01.479Z,11.47
2019-05-21T16:43:33.615Z,11.20
2019-05-21T16:46:05.737Z,10.43
2019-05-21T16:48:37.642Z,10.77
2019-05-21T16:51:09.462Z,11.17
2019-05-21T16:53:41.388Z,10.63
2019-05-21T16:56:13.313Z,10.63
2019-05-21T16:58:45.261Z,10.63
2019-05-21T17:01:17.699Z,10.20
2019-05-21T17:03:59.585Z,9.57
2019-05-21T17:06:23.279Z,10.17
2019-05-21T17:08:55.069Z,11.43
2019-05-21T17:11:27.044Z,10.30
2019-05-21T17:13:58.935Z,10.53
2019-05-21T17:16:35.057Z,9.80
2019-05-21T17:19:06.975Z,10.13
2019-05-21T17:21:38.772Z,10.17
2019-05-21T17:24:20.174Z,10.13
2019-05-21T17:26:54.273Z,9.83
2019-05-21T17:29:26.169Z,8.47
2019-05-21T17:32:06.498Z,9.13
2019-05-21T17:34:39.175Z,8.63
2019-05-21T17:37:12.350Z,8.30
2019-05-21T17:39:44.157Z,9.77
2019-05-21T17:42:16.142Z,9.83
2019-05-21T17:44:49.797Z,9.73
2019-05-21T17:47:21.608Z,9.77
2019-05-21T17:49:53.373Z,9.90
2019-05-21T17:52:26.703Z,10.77
2019-05-21T17:55:05.266Z,12.10
2019-05-21T17:57:38.831Z,12.20
2019-05-21T18:03:20.523Z,10.80
2019-05-21T18:05:52.530Z,11.60
2019-05-21T18:08:24.366Z,11.50
2019-05-21T18:10:56.511Z,12.33
2019-05-21T18:13:34.690Z,11.00
2019-05-21T18:16:08.170Z,11.20
2019-05-21T18:18:41.009Z,10.80
2019-05-21T18:21:13.165Z,10.50
2019-05-21T18:23:45.275Z,10.37
2019-05-21T18:26:17.224Z,10.73
2019-05-21T18:28:49.217Z,11.13
2019-05-21T18:31:21.243Z,10.67
2019-05-21T18:33:56.242Z,11.53
2019-05-21T18:36:28.092Z,11.40
2019-05-21T18:39:00.030Z,11.73
2019-05-21T18:41:32.062Z,11.63
2019-05-21T18:44:04.567Z,12.33
2019-05-21T18:46:36.463Z,12.13
2019-05-21T18:49:08.442Z,13.07
2019-05-21T18:51:40.233Z,12.67
2019-05-21T18:54:12.079Z,12.60
2019-05-21T18:56:45.483Z,12.90
2019-05-21T18:59:19.041Z,13.43
2019-05-21T19:01:51.054Z,14.43
2019-05-21T19:04:22.893Z,15.17
2019-05-21T19:06:54.745Z,15.00
2019-05-21T19:09:26.805Z,13.53
2019-05-21T19:11:59.053Z,14.50
2019-05-21T19:14:31.291Z,12.57
2019-05-21T19:17:03.077Z,12.80
2019-05-21T19:19:34.925Z,12.53
2019-05-21T19:22:06.903Z,11.77
2019-05-21T19:24:38.851Z,12.67
2019-05-21T19:27:10.762Z,13.60
2019-05-21T19:29:42.888Z,14.47
2019-05-21T19:32:14.876Z,13.33
2019-05-21T19:34:46.618Z,12.70
2019-05-21T19:37:18.515Z,14.77
2019-05-21T19:39:50.443Z,13.60
2019-05-21T19:42:22.234Z,12.50
2019-05-21T19:44:56.665Z,13.00
2019-05-21T19:47:28.581Z,12.23
2019-05-21T19:50:01.604Z,13.00
2019-05-21T19:52:44.244Z,12.77
2019-05-21T19:55:14.323Z,12.77
2019-05-21T19:57:46.481Z,12.07
2019-05-21T20:00:27.121Z,11.27
2019-05-21T20:03:01.587Z,10.33
2019-05-21T20:05:36.010Z,11.30
2019-05-21T20:08:11.304Z,10.63
2019-05-21T20:10:43.895Z,10.87
2019-05-21T20:13:30.462Z,10.27
2019-05-21T20:16:04.387Z,12.13
2019-05-21T20:18:40.886Z,10.27
2019-05-21T20:21:16.475Z,12.07
2019-05-21T20:23:52.270Z,12.07
2019-05-21T20:26:29.371Z,13.03
2019-05-21T20:29:09.467Z,11.67
2019-05-21T20:31:40.858Z,10.87
2019-05-21T20:34:12.981Z,12.03
2019-05-21T20:36:44.951Z,12.00
2019-05-21T20:39:18.819Z,13.07
2019-05-21T20:41:50.880Z,13.70
2019-05-21T20:44:22.716Z,16.63
2019-05-21T20:46:55.121Z,14.37
2019-05-21T20:49:27.513Z,12.40
2019-05-21T20:51:59.646Z,11.27
2019-05-21T20:54:33.415Z,12.37
2019-05-21T20:57:07.539Z,12.43
2019-05-21T20:59:39.945Z,12.10
2019-05-21T21:02:12.306Z,12.53
2019-05-21T21:04:44.162Z,12.23
2019-05-21T21:07:17.814Z,11.73
2019-05-21T21:09:49.877Z,12.43
2019-05-21T21:12:22.105Z,11.80
2019-05-21T21:14:54.426Z,12.40
2019-05-21T21:17:26.431Z,13.53
2019-05-21T21:19:58.897Z,12.40
2019-05-21T21:22:30.861Z,13.10
2019-05-21T21:25:03.441Z,12.43
2019-05-21T21:27:36.266Z,13.53
2019-05-21T21:30:09.016Z,13.60
2019-05-21T21:32:41.243Z,12.47
2019-05-21T21:35:13.976Z,12.17
2019-05-21T21:37:46.186Z,12.33
2019-05-21T21:40:18.649Z,13.63
2019-05-21T21:42:50.993Z,13.33
2019-05-21T21:45:22.851Z,14.60
2019-05-21T21:47:56.353Z,15.23
2019-05-21T21:50:28.544Z,14.33
2019-05-21T21:53:02.258Z,14.13
2019-05-21T21:55:34.095Z,15.37
2019-05-21T21:58:05.993Z,14.87
2019-05-21T22:01:28.447Z,14.80
2019-05-21T22:04:05.303Z,14.83
2019-05-21T22:06:40.780Z,15.33
2019-05-21T22:09:17.492Z,16.03
2019-05-21T22:11:50.110Z,17.03
2019-05-21T22:14:23.898Z,16.63
2019-05-21T22:16:57.308Z,16.87
2019-05-21T22:19:30.611Z,16.80
2019-05-21T22:22:03.320Z,16.53
2019-05-21T22:24:36.641Z,18.83
2019-05-21T22:27:08.717Z,18.07
2019-05-21T22:29:40.696Z,18.47
2019-05-21T22:32:12.596Z,18.00
2019-05-21T22:34:44.440Z,18.63
2019-05-21T22:37:20.541Z,17.20
2019-05-21T22:39:52.821Z,17.03
2019-05-21T22:42:24.919Z,17.37
2019-05-21T22:45:07.478Z,16.87
2019-05-21T22:47:30.719Z,16.87
2019-05-21T22:50:03.335Z,18.17
2019-05-21T22:52:35.504Z,16.70
2019-05-21T22:55:07.865Z,17.80
2019-05-21T22:57:39.653Z,17.13
2019-05-21T23:00:12.116Z,16.57
2019-05-21T23:02:44.766Z,17.00
2019-05-21T23:05:16.659Z,18.57
2019-05-21T23:07:48.784Z,16.87
2019-05-21T23:10:20.839Z,18.13
2019-05-21T23:12:52.673Z,15.93
2019-05-21T23:15:25.666Z,15.87
2019-05-21T23:17:57.730Z,17.30
2019-05-21T23:20:36.278Z,16.47
2019-05-21T23:23:08.620Z,17.17
2019-05-21T23:25:43.604Z,16.90
2019-05-21T23:28:15.892Z,17.77
2019-05-21T23:30:48.540Z,17.30
2019-05-21T23:33:21.492Z,16.77
2019-05-21T23:35:53.683Z,16.20
2019-05-21T23:38:25.587Z,15.43
2019-05-21T23:40:58.140Z,15.93
2019-05-21T23:43:30.929Z,16.07
2019-05-21T23:46:04.517Z,17.30
2019-05-21T23:48:37.218Z,17.67
2019-05-21T23:51:12.039Z,17.83
2019-05-21T23:53:43.828Z,16.77
2019-05-21T23:56:16.003Z,17.27
2019-05-21T23:58:48.325Z,16.93
